»·PEaware :: N550BW KPSP-KLAX

N550BW :: KPSP-KLAX

FLIGHT INFORMATION

Flight Status: Arrived
Operator: Privately registered:
United States
More flights under this callsign
Pilot: Brett W. (430)
Aircraft: CESSNA 550 CITATION 2/S2/BRAVO
(C550)
More flights by this aircraft type
Origin: KPSP Palm Springs Intl
United States
Destination: KLAX Los Angeles Intl
United States
More flights between these airports :: More routes between these airports
Route: +CATH1 PSP V388 ACINS V283 SLI V8 TANDY
File this flight plan on PilotEdge
Remarks: twitch.tv / bwflightsimulation
Altitude:
(Current/Filed)
12,000ft
Speed:
(Current/Filed)
307kts
Departed: 06-Dec-18 10:04 AM
Arrived: 06-Dec-18 10:47 AM
Distance/Time
Traveled:
94nm/0:42
Distance/Time
To Go:
Arrived

Flight Plot

Page will automatically refresh every two minutes.

Flight plan parsing failed; only flown route is shown


Map Options




Map Legend


Flown Route
Filed Route
Departure Airport
Arrival Airport
Navaid (VOR, NDB)
Fix

Horizontal Profiles

Position Reports

Time Latitude Longitude Heading Altitude Ground
Speed
06-Dec-18 09:36 33.825245 -116.510277 89 480ft 0kts
06-Dec-18 09:36 33.825245 -116.510277 89 480ft 0kts
06-Dec-18 09:37 33.825245 -116.510277 89 480ft 0kts
06-Dec-18 09:38 33.825245 -116.510277 89 480ft 0kts
06-Dec-18 09:39 33.825245 -116.510277 89 480ft 0kts
06-Dec-18 09:40 33.825245 -116.510277 89 480ft 0kts
06-Dec-18 09:41 33.825245 -116.510277 89 480ft 0kts
06-Dec-18 09:42 33.825245 -116.510277 89 480ft 0kts
06-Dec-18 09:43 33.825245 -116.510277 89 480ft 0kts
06-Dec-18 09:44 33.825245 -116.510277 89 480ft 0kts
06-Dec-18 09:45 33.825245 -116.510277 89 480ft 0kts
06-Dec-18 09:46 33.825245 -116.510277 89 480ft 0kts
06-Dec-18 09:47 33.825245 -116.510277 89 480ft 0kts
06-Dec-18 09:48 33.825245 -116.510277 89 480ft 0kts
06-Dec-18 09:49 33.825245 -116.510277 89 480ft 0kts
06-Dec-18 09:50 33.825245 -116.510277 89 480ft 0kts
06-Dec-18 09:51 33.825245 -116.510277 89 480ft 0kts
06-Dec-18 09:52 33.825245 -116.510277 89 480ft 0kts
06-Dec-18 09:53 33.825245 -116.510248 89 480ft 0kts
06-Dec-18 09:54 33.825245 -116.510232 89 480ft 0kts
06-Dec-18 09:55 33.825245 -116.510229 89 480ft 0kts
06-Dec-18 09:56 33.825245 -116.510226 89 480ft 0kts
06-Dec-18 09:57 33.826235 -116.507539 32 480ft 1kts
06-Dec-18 09:58 33.826340 -116.507547 192 480ft 4kts
06-Dec-18 09:59 33.825354 -116.505910 139 480ft 18kts
06-Dec-18 10:00 33.820614 -116.501583 141 480ft 17kts
06-Dec-18 10:01 33.818507 -116.498999 85 480ft 0kts
06-Dec-18 10:02 33.818507 -116.498997 85 480ft 0kts
06-Dec-18 10:03 33.821266 -116.500179 322 480ft 67kts
06-Dec-18 10:04 33.849977 -116.506122 66 1960ft 163kts
06-Dec-18 10:05 33.855335 -116.439353 88 4664ft 212kts
06-Dec-18 10:06 33.843260 -116.368166 116 7026ft 258kts
06-Dec-18 10:07 33.810765 -116.290342 119 7009ft 248kts
06-Dec-18 10:08 33.771747 -116.232210 170 7209ft 227kts
06-Dec-18 10:09 33.738921 -116.283408 292 7074ft 250kts
06-Dec-18 10:10 33.787611 -116.340191 316 8885ft 249kts
06-Dec-18 10:11 33.839328 -116.396398 311 11844ft 251kts
06-Dec-18 10:12 33.882082 -116.475538 281 12022ft 303kts
06-Dec-18 10:13 33.906278 -116.572250 281 12012ft 300kts
06-Dec-18 10:14 33.930362 -116.667534 281 11997ft 295kts
06-Dec-18 10:15 33.947841 -116.762808 264 11974ft 287kts
06-Dec-18 10:16 33.944670 -116.858906 262 11952ft 291kts
06-Dec-18 10:17 33.941265 -116.956687 262 11923ft 293kts
06-Dec-18 10:18 33.937780 -117.054881 262 11676ft 294kts
06-Dec-18 10:19 33.915882 -117.143764 224 10581ft 272kts
06-Dec-18 10:20 33.849303 -117.174567 187 9992ft 250kts
06-Dec-18 10:21 33.789117 -117.205277 228 9770ft 250kts
06-Dec-18 10:22 33.777689 -117.293907 266 8790ft 287kts
06-Dec-18 10:23 33.778431 -117.375980 266 8068ft 287kts
06-Dec-18 10:24 33.779349 -117.468159 265 7973ft 267kts
06-Dec-18 10:25 33.780044 -117.551985 265 7994ft 267kts
06-Dec-18 10:26 33.780679 -117.633004 265 7996ft 270kts
06-Dec-18 10:27 33.781319 -117.723998 265 7442ft 289kts
06-Dec-18 10:28 33.782046 -117.817883 265 6023ft 271kts
06-Dec-18 10:29 33.782502 -117.887983 264 5971ft 251kts
06-Dec-18 10:30 33.782913 -117.970066 264 5973ft 243kts
06-Dec-18 10:31 33.783287 -118.050624 264 5971ft 240kts
06-Dec-18 10:32 33.784278 -118.118377 272 5973ft 242kts
06-Dec-18 10:33 33.794096 -118.192385 273 5987ft 243kts
06-Dec-18 10:34 33.802954 -118.272742 268 6006ft 241kts
06-Dec-18 10:35 33.804190 -118.353136 263 6008ft 240kts
06-Dec-18 10:36 33.803386 -118.433510 263 6009ft 240kts
06-Dec-18 10:37 33.802111 -118.515660 265 5096ft 270kts
06-Dec-18 10:38 33.809300 -118.605302 285 2971ft 235kts
06-Dec-18 10:39 33.848526 -118.646941 351 3006ft 184kts
06-Dec-18 10:40 33.899566 -118.639830 54 2162ft 196kts
06-Dec-18 10:41 33.917712 -118.584871 86 1994ft 164kts
06-Dec-18 10:42 33.921043 -118.533901 78 1991ft 148kts
06-Dec-18 10:43 33.927408 -118.480342 79 1206ft 159kts
06-Dec-18 10:44 33.931126 -118.442137 78 553ft 139kts
06-Dec-18 10:45 33.935605 -118.402387 78 129ft 47kts
06-Dec-18 10:46 33.935968 -118.394500 91 129ft 7kts
06-Dec-18 10:47 33.935428 -118.393798 177 129ft 0kts
06-Dec-18 10:48 33.934587 -118.397658 262 129ft 14kts
06-Dec-18 10:49 33.933048 -118.399338 228 129ft 0kts
06-Dec-18 10:50 33.932678 -118.399265 79 129ft 0kts
06-Dec-18 10:51 33.932678 -118.399265 79 129ft 0kts
06-Dec-18 10:52 33.932678 -118.399265 79 129ft 0kts

Navigation Log

Ident Type
Flight plan parsing failed, navigation log unavailable